createdAt,value
2019-02-22T00:00:09.314Z,11.47
2019-02-22T00:02:40.863Z,10.13
2019-02-22T00:05:11.158Z,9.17
2019-02-22T00:07:41.019Z,13.77
2019-02-22T00:10:11.120Z,10.83
2019-02-22T00:12:41.274Z,11.03
2019-02-22T00:15:11.481Z,12.67
2019-02-22T00:17:41.710Z,10.50
2019-02-22T00:20:12.179Z,7.30
2019-02-22T00:22:42.269Z,7.93
2019-02-22T00:25:12.342Z,9.43
2019-02-22T00:27:42.649Z,9.10
2019-02-22T00:30:13.730Z,10.20
2019-02-22T00:32:43.929Z,8.33
2019-02-22T00:35:14.373Z,9.23
2019-02-22T00:37:44.624Z,8.43
2019-02-22T00:40:14.774Z,6.87
2019-02-22T00:42:44.917Z,5.90
2019-02-22T00:45:14.949Z,10.47
2019-02-22T00:47:45.004Z,7.63
2019-02-22T00:50:15.224Z,6.80
2019-02-22T00:52:46.414Z,5.70
2019-02-22T00:55:16.700Z,10.10
2019-02-22T00:57:46.870Z,10.67
2019-02-22T01:00:17.143Z,10.03
2019-02-22T01:02:48.852Z,8.40
2019-02-22T01:05:19.085Z,8.40
2019-02-22T01:07:49.312Z,8.00
2019-02-22T01:10:30.479Z,9.40
2019-02-22T01:12:51.210Z,11.93
2019-02-22T01:15:21.339Z,7.97
2019-02-22T01:17:51.477Z,6.17
2019-02-22T01:20:21.565Z,7.10
2019-02-22T01:22:51.645Z,10.77
2019-02-22T01:25:21.786Z,8.07
2019-02-22T01:27:52.190Z,7.60
2019-02-22T01:30:22.414Z,8.30
2019-02-22T01:32:52.658Z,5.17
2019-02-22T01:35:23.022Z,10.33
2019-02-22T01:37:53.163Z,5.30
2019-02-22T01:40:23.527Z,6.90
2019-02-22T01:42:53.396Z,10.43
2019-02-22T01:45:23.688Z,7.57
2019-02-22T01:47:53.479Z,13.93
2019-02-22T01:50:24.303Z,7.13
2019-02-22T01:52:53.905Z,9.67
2019-02-22T01:55:24.169Z,8.83
2019-02-22T01:57:54.246Z,4.80
2019-02-22T02:00:24.484Z,8.97
2019-02-22T02:02:54.569Z,6.27
2019-02-22T02:05:24.758Z,7.80
2019-02-22T02:07:54.868Z,10.23
2019-02-22T02:10:24.844Z,9.37
2019-02-22T02:12:55.168Z,10.10
2019-02-22T02:15:25.604Z,12.17
2019-02-22T02:17:55.381Z,6.17
2019-02-22T02:20:25.699Z,7.33
2019-02-22T02:22:55.862Z,5.73
2019-02-22T02:25:25.996Z,5.97
2019-02-22T02:27:56.442Z,6.50
2019-02-22T02:30:26.570Z,5.20
2019-02-22T02:32:56.473Z,7.63
2019-02-22T02:35:26.620Z,8.07
2019-02-22T02:37:57.109Z,8.27
2019-02-22T02:40:27.031Z,9.13
2019-02-22T02:42:57.151Z,9.53
2019-02-22T02:45:27.269Z,7.57
2019-02-22T02:47:57.548Z,9.27
2019-02-22T02:50:27.446Z,7.37
2019-02-22T02:52:57.760Z,10.63
2019-02-22T02:55:30.604Z,8.80
2019-02-22T02:58:00.945Z,7.70
2019-02-22T03:00:31.079Z,9.83
2019-02-22T03:03:01.058Z,7.17
2019-02-22T03:05:51.253Z,9.20
2019-02-22T03:08:21.983Z,10.87
2019-02-22T03:10:52.124Z,11.43
2019-02-22T03:13:22.343Z,6.77
2019-02-22T03:15:52.524Z,9.90
2019-02-22T03:18:23.478Z,11.03
2019-02-22T03:20:53.771Z,6.47
2019-02-22T03:23:23.932Z,8.80
2019-02-22T03:25:54.035Z,8.47
2019-02-22T03:28:23.794Z,5.30
2019-02-22T03:30:53.994Z,10.23
2019-02-22T03:33:24.059Z,6.63
2019-02-22T03:35:54.090Z,8.00
2019-02-22T03:38:24.259Z,8.43
2019-02-22T03:40:54.444Z,9.87
2019-02-22T03:43:24.686Z,8.23
2019-02-22T03:45:54.805Z,7.80
2019-02-22T03:48:25.055Z,6.93
2019-02-22T03:50:55.310Z,9.30
2019-02-22T03:53:27.172Z,6.90
2019-02-22T03:55:57.423Z,7.50
2019-02-22T03:58:27.769Z,8.53
2019-02-22T04:00:57.691Z,4.55
2019-02-22T04:03:27.857Z,7.15
2019-02-22T04:05:58.015Z,6.70
2019-02-22T04:08:28.320Z,3.93
2019-02-22T04:10:58.507Z,4.20
2019-02-22T04:53:15.149Z,14.90
2019-02-22T04:55:45.174Z,4.77
2019-02-22T09:42:16.956Z,4.10
2019-02-22T09:47:16.464Z,2.90
2019-02-22T09:49:46.381Z,3.10
2019-02-22T09:54:45.731Z,2.80
2019-02-22T09:57:15.817Z,2.20
2019-02-22T11:07:08.165Z,2.93
2019-02-22T11:09:38.178Z,1.33
2019-02-22T11:12:08.194Z,1.67
2019-02-22T11:14:39.231Z,2.23
2019-02-22T11:17:09.325Z,1.03
2019-02-22T11:19:39.523Z,0.83
2019-02-22T11:22:10.048Z,1.60
2019-02-22T11:24:40.318Z,3.30
2019-02-22T11:27:10.520Z,3.30
2019-02-22T11:29:40.597Z,3.50
2019-02-22T11:32:10.678Z,2.80
2019-02-22T11:34:40.890Z,3.40
2019-02-22T11:37:11.903Z,4.03
2019-02-22T11:39:41.945Z,4.00
2019-02-22T11:42:13.461Z,2.20
2019-02-22T11:44:43.620Z,2.13
2019-02-22T11:47:13.935Z,1.40
2019-02-22T11:49:44.088Z,3.30
2019-02-22T11:52:14.309Z,2.40
2019-02-22T11:54:44.289Z,2.33
2019-02-22T11:57:14.737Z,4.00
2019-02-22T11:59:44.335Z,3.03
2019-02-22T12:02:14.533Z,3.20
2019-02-22T12:04:46.227Z,5.10
2019-02-22T12:07:16.321Z,3.00
2019-02-22T12:09:46.421Z,1.00
2019-02-22T12:12:17.553Z,4.50
2019-02-22T12:14:51.558Z,6.60
2019-02-22T12:17:19.294Z,5.77
2019-02-22T12:19:49.356Z,3.00
2019-02-22T12:22:19.577Z,2.80
2019-02-22T12:24:49.595Z,4.47
2019-02-22T12:29:49.208Z,2.33
2019-02-22T12:32:18.795Z,2.47
2019-02-22T12:34:48.948Z,7.40
2019-02-22T12:37:19.083Z,4.90
2019-02-22T12:39:49.380Z,3.70
2019-02-22T12:42:19.613Z,8.30
2019-02-22T12:44:49.813Z,3.40
2019-02-22T12:47:20.015Z,3.47
2019-02-22T12:49:50.455Z,3.43
2019-02-22T12:52:20.561Z,4.73
2019-02-22T12:54:50.727Z,8.60
2019-02-22T12:57:20.829Z,3.07
2019-02-22T12:59:51.031Z,1.53
2019-02-22T13:02:21.246Z,2.73
2019-02-22T13:04:50.958Z,1.50
2019-02-22T13:07:20.942Z,8.77
2019-02-22T13:09:51.111Z,5.83
2019-02-22T13:12:21.220Z,5.93
2019-02-22T13:14:51.659Z,5.03
2019-02-22T13:17:30.419Z,2.57
2019-02-22T13:19:52.977Z,1.60
2019-02-22T13:22:22.864Z,3.80
2019-02-22T13:24:54.487Z,4.40
2019-02-22T13:27:24.503Z,4.83
2019-02-22T13:29:54.596Z,4.67
2019-02-22T13:32:24.762Z,1.67
2019-02-22T13:34:54.952Z,3.47
2019-02-22T13:37:25.458Z,3.90
2019-02-22T13:39:55.742Z,3.90
2019-02-22T13:42:25.759Z,2.70
2019-02-22T13:44:55.932Z,3.90
2019-02-22T13:47:25.975Z,3.67
2019-02-22T13:49:56.279Z,6.57
2019-02-22T13:52:26.500Z,4.53
2019-02-22T13:54:56.642Z,2.57
2019-02-22T13:57:26.684Z,6.63
2019-02-22T13:59:56.914Z,8.53
2019-02-22T14:02:26.854Z,3.17
2019-02-22T14:04:57.075Z,4.00
2019-02-22T14:07:27.187Z,4.03
2019-02-22T14:09:57.132Z,4.17
2019-02-22T14:12:27.316Z,7.80
2019-02-22T14:14:57.315Z,4.27
2019-02-22T14:17:27.351Z,4.00
2019-02-22T14:19:57.022Z,2.73
2019-02-22T14:22:27.200Z,4.23
2019-02-22T14:24:57.341Z,2.60
2019-02-22T14:27:27.320Z,2.10
2019-02-22T14:30:00.500Z,3.67
2019-02-22T14:32:30.980Z,4.05
2019-02-22T14:35:01.241Z,2.90
2019-02-22T14:37:31.286Z,3.10
2019-02-22T14:40:03.838Z,4.43
2019-02-22T14:45:01.992Z,3.87
2019-02-22T14:47:32.684Z,2.57
2019-02-22T14:50:02.486Z,7.33
2019-02-22T14:52:32.631Z,3.77
2019-02-22T14:55:02.734Z,1.87
2019-02-22T14:57:32.926Z,4.50
2019-02-22T15:00:03.692Z,2.73
2019-02-22T15:02:36.185Z,3.70
2019-02-22T15:05:09.103Z,3.80
2019-02-22T15:07:39.475Z,8.40
2019-02-22T15:10:10.634Z,3.90
2019-02-22T15:12:41.025Z,3.60
2019-02-22T15:15:16.554Z,4.85
2019-02-22T15:17:48.215Z,6.05
2019-02-22T15:20:18.648Z,5.50
2019-02-22T15:22:48.785Z,5.10
2019-02-22T15:25:19.541Z,5.77
2019-02-22T15:27:49.794Z,4.20
2019-02-22T15:30:20.178Z,4.87
2019-02-22T15:32:50.443Z,7.57
2019-02-22T15:35:20.068Z,4.43
2019-02-22T15:37:50.047Z,10.70
2019-02-22T15:40:20.175Z,8.00
2019-02-22T15:42:50.445Z,6.80
2019-02-22T15:45:20.586Z,11.10
2019-02-22T15:47:51.046Z,9.70
2019-02-22T16:15:23.587Z,15.70
2019-02-22T16:35:21.002Z,19.10
2019-02-22T16:37:51.320Z,15.80
2019-02-22T16:52:48.082Z,20.67
2019-02-22T17:20:13.131Z,22.03
2019-02-22T17:22:43.233Z,30.40
2019-02-22T17:25:22.810Z,23.00
2019-02-22T17:27:53.985Z,29.60
2019-02-22T17:30:25.979Z,29.80
2019-02-22T17:32:55.538Z,35.70
2019-02-22T17:35:25.807Z,35.00
2019-02-22T17:37:58.262Z,34.77
2019-02-22T17:40:34.096Z,32.00
2019-02-22T17:43:15.016Z,35.07
2019-02-22T17:45:52.433Z,23.43
2019-02-22T18:58:43.565Z,42.75
2019-02-22T19:06:12.250Z,47.70
2019-02-22T19:13:41.239Z,89.10
2019-02-22T20:53:33.306Z,25.35
2019-02-22T21:11:02.505Z,16.55
2019-02-22T21:36:00.145Z,31.50
2019-02-22T21:41:00.425Z,28.30
2019-02-22T21:43:31.344Z,27.20
2019-02-22T21:46:03.672Z,22.15
2019-02-22T21:51:03.424Z,23.60
2019-02-22T21:53:33.064Z,21.90
2019-02-22T21:56:03.624Z,18.85
2019-02-22T21:58:34.633Z,24.30
2019-02-22T22:01:05.268Z,18.60
2019-02-22T22:03:35.117Z,20.30
2019-02-22T22:06:05.205Z,22.10
2019-02-22T22:08:35.459Z,21.13
2019-02-22T22:11:05.641Z,21.90
2019-02-22T22:13:35.835Z,19.90
2019-02-22T22:16:06.239Z,18.45
2019-02-22T22:18:39.009Z,14.93
2019-02-22T22:21:08.167Z,20.70
2019-02-22T22:23:38.284Z,18.70
2019-02-22T22:26:10.309Z,22.10
2019-02-22T22:28:40.696Z,23.73
2019-02-22T22:31:10.489Z,22.10
2019-02-22T22:33:40.792Z,22.33
2019-02-22T22:36:11.259Z,19.50
2019-02-22T22:43:39.003Z,18.60
2019-02-22T22:48:38.420Z,25.93
2019-02-22T22:51:11.203Z,20.93
2019-02-22T22:53:41.260Z,24.90
2019-02-22T22:56:11.421Z,27.53
2019-02-22T22:58:41.547Z,17.90
2019-02-22T23:01:13.606Z,24.20
2019-02-22T23:03:43.960Z,17.97
2019-02-22T23:06:14.649Z,17.00
2019-02-22T23:08:44.910Z,18.03
2019-02-22T23:11:15.026Z,18.47
2019-02-22T23:13:45.302Z,19.87
2019-02-22T23:16:15.427Z,20.10
2019-02-22T23:18:45.808Z,23.87
2019-02-22T23:21:16.063Z,33.70
2019-02-22T23:23:46.266Z,25.77
2019-02-22T23:26:16.505Z,29.33
2019-02-22T23:28:46.684Z,33.90
2019-02-22T23:31:16.890Z,35.00
2019-02-22T23:33:46.899Z,29.57
2019-02-22T23:36:18.290Z,38.13
2019-02-22T23:38:48.608Z,36.43
2019-02-22T23:41:18.249Z,34.70
2019-02-22T23:43:48.551Z,40.83
2019-02-22T23:46:18.762Z,58.13
2019-02-22T23:48:48.825Z,71.47
2019-02-22T23:51:19.099Z,56.73
2019-02-22T23:53:49.167Z,46.87
2019-02-22T23:56:19.466Z,21.70
2019-02-22T23:58:49.260Z,25.97
